Time;durP1;ratioP1;P1;durP2;ratioP2;P2;SDS_P1;SDS_P2;PMS_P1;PMS_P2;Temp;Humidity;BMP_temperature;BMP_pressure;BME280_temperature;BME280_humidity;BME280_pressure;Samples;Min_cycle;Max_cycle;Signal;HPM_P1;HPM_P2
2023/06/18 00:00:09;;;;;;;0.10;0.10;;;;;;;16.35;47.83;99792.19;4904437;29;20052;-75
2023/06/18 00:02:35;;;;;;;0.10;0.10;;;;;;;16.36;48.45;99780.00;4906079;29;20055;-76
2023/06/18 00:05:01;;;;;;;0.10;0.10;;;;;;;16.34;48.38;99791.38;4908699;29;20062;-74
2023/06/18 00:07:31;;;;;;;0.10;0.10;;;;;;;16.27;48.26;99786.31;4909327;29;20048;-75
2023/06/18 00:09:57;;;;;;;0.10;0.10;;;;;;;16.29;48.37;99786.78;4907517;29;20054;-74
2023/06/18 00:12:24;;;;;;;0.10;0.10;;;;;;;16.33;48.26;99798.03;4907286;29;20067;-73
2023/06/18 00:14:50;;;;;;;0.15;0.15;;;;;;;16.37;48.62;99787.16;4906945;29;20467;-73
2023/06/18 00:17:16;;;;;;;0.10;0.10;;;;;;;16.38;49.59;99786.84;4907852;29;20055;-73
2023/06/18 00:19:42;;;;;;;0.10;0.10;;;;;;;16.39;50.02;99785.72;4906223;29;20167;-74
2023/06/18 00:22:09;;;;;;;0.10;0.10;;;;;;;16.41;47.69;99785.44;4909239;29;20044;-72
2023/06/18 00:24:36;;;;;;;0.10;0.10;;;;;;;16.39;48.01;99777.44;4920350;29;20055;-74
2023/06/18 00:27:03;;;;;;;0.10;0.10;;;;;;;16.35;49.04;99772.88;4905699;29;20135;-73
2023/06/18 00:29:30;;;;;;;0.10;0.10;;;;;;;16.31;48.75;99769.91;4891605;29;20044;-73
2023/06/18 00:31:56;;;;;;;0.10;0.10;;;;;;;16.35;47.73;99783.91;4907439;29;20044;-73
2023/06/18 00:34:32;;;;;;;0.10;0.10;;;;;;;16.33;49.36;99780.66;4904302;29;20060;-73
2023/06/18 00:36:59;;;;;;;0.10;0.10;;;;;;;16.28;49.37;99787.94;4906330;29;20040;-74
2023/06/18 00:39:25;;;;;;;0.10;0.10;;;;;;;16.23;49.34;99781.72;4904969;29;20134;-74
2023/06/18 00:41:53;;;;;;;0.10;0.10;;;;;;;16.21;49.64;99792.25;4891643;29;20056;-72
2023/06/18 00:44:22;;;;;;;0.10;0.10;;;;;;;16.17;49.24;99789.28;4903111;29;20511;-73
2023/06/18 00:46:49;;;;;;;0.10;0.10;;;;;;;16.13;49.64;99785.53;4906060;29;20454;-74
2023/06/18 00:49:18;;;;;;;0.10;0.10;;;;;;;16.14;48.49;99779.69;4875412;29;20133;-73
2023/06/18 00:51:46;;;;;;;0.10;0.10;;;;;;;16.11;48.79;99774.81;4903895;29;20096;-72
2023/06/18 00:54:14;;;;;;;0.10;0.10;;;;;;;15.99;50.41;99771.78;4906885;29;20083;-73
2023/06/18 00:56:50;;;;;;;0.10;0.10;;;;;;;16.02;49.76;99782.22;4907869;29;20435;-74
2023/06/18 00:59:22;;;;;;;0.10;0.10;;;;;;;15.99;49.95;99797.44;4907655;29;20419;-75
2023/06/18 01:01:51;;;;;;;0.13;0.13;;;;;;;16.07;48.79;99790.38;4923449;29;20073;-73
2023/06/18 01:04:20;;;;;;;0.10;0.10;;;;;;;16.13;49.27;99802.09;4905410;29;20400;-73
2023/06/18 01:06:51;;;;;;;0.10;0.10;;;;;;;16.12;49.79;99795.75;4903945;29;20617;-74
2023/06/18 01:09:21;;;;;;;0.10;0.10;;;;;;;16.08;49.30;99797.50;4904738;29;20873;-73
2023/06/18 01:11:47;;;;;;;0.10;0.10;;;;;;;16.08;49.86;99797.50;4914804;29;20305;-72
2023/06/18 01:14:14;;;;;;;0.10;0.10;;;;;;;16.11;49.03;99798.84;4910228;29;20578;-73
2023/06/18 01:16:46;;;;;;;0.10;0.10;;;;;;;16.13;48.87;99802.88;4905984;29;20543;-73
2023/06/18 01:19:29;;;;;;;0.10;0.10;;;;;;;16.14;48.57;99809.22;4907569;29;20048;-74
2023/06/18 01:22:01;;;;;;;0.10;0.10;;;;;;;16.16;48.64;99805.03;4906608;29;20052;-74
2023/06/18 01:24:32;;;;;;;0.10;0.10;;;;;;;16.21;48.66;99811.56;4905297;29;20044;-75
2023/06/18 01:27:00;;;;;;;0.10;0.10;;;;;;;16.28;49.15;99806.41;4905398;29;20044;-73
2023/06/18 01:29:27;;;;;;;0.10;0.10;;;;;;;16.41;48.32;99824.06;4906521;29;20048;-73
2023/06/18 01:31:56;;;;;;;0.10;0.10;;;;;;;16.55;47.22;99804.66;4908865;29;20539;-74
2023/06/18 01:34:24;;;;;;;0.10;0.10;;;;;;;16.64;47.38;99819.34;4892403;29;20048;-74
2023/06/18 01:36:56;;;;;;;0.10;0.10;;;;;;;16.78;48.87;99822.00;4907061;29;20075;-74
2023/06/18 01:39:30;;;;;;;0.10;0.10;;;;;;;16.89;48.33;99818.97;4907839;29;20051;-72
2023/06/18 01:42:04;;;;;;;0.10;0.10;;;;;;;17.08;47.60;99816.00;4908936;29;20063;-74
2023/06/18 01:44:31;;;;;;;0.47;0.20;;;;;;;17.15;47.49;99821.88;4893352;29;20130;-74
2023/06/18 01:46:59;;;;;;;0.20;0.20;;;;;;;17.26;46.86;99817.72;4911563;29;20076;-73
2023/06/18 01:49:27;;;;;;;0.20;0.20;;;;;;;17.38;46.60;99825.38;4908830;29;20308;-72
2023/06/18 01:51:56;;;;;;;0.10;0.10;;;;;;;17.46;45.27;99825.72;4908192;29;20044;-74
2023/06/18 01:54:24;;;;;;;0.10;0.10;;;;;;;17.53;45.43;99826.09;4906139;29;20108;-73
2023/06/18 01:56:51;;;;;;;0.10;0.10;;;;;;;17.56;45.36;99830.97;4908314;29;20206;-73
2023/06/18 01:59:19;;;;;;;0.13;0.13;;;;;;;17.52;45.08;99829.97;4891480;29;20108;-74
2023/06/18 02:01:46;;;;;;;0.10;0.10;;;;;;;17.43;44.49;99829.97;4922887;29;20071;-73
2023/06/18 02:04:13;;;;;;;0.10;0.10;;;;;;;17.34;44.73;99831.88;4908699;29;20048;-74
2023/06/18 02:06:39;;;;;;;0.20;0.20;;;;;;;17.29;45.16;99830.06;4917680;29;20107;-74
2023/06/18 02:09:07;;;;;;;0.10;0.10;;;;;;;17.26;45.34;99836.22;4908595;29;20095;-73
2023/06/18 02:11:34;;;;;;;0.20;0.20;;;;;;;17.28;44.94;99823.72;4892516;29;20519;-75
2023/06/18 02:14:00;;;;;;;0.20;0.20;;;;;;;17.31;45.57;99835.28;4908053;29;20067;-75
2023/06/18 02:16:26;;;;;;;0.17;0.17;;;;;;;17.33;45.48;99831.06;4891167;29;20119;-75
2023/06/18 02:18:53;;;;;;;0.20;0.20;;;;;;;17.26;44.98;99834.28;4908230;29;20075;-76
2023/06/18 02:21:20;;;;;;;0.10;0.10;;;;;;;17.22;45.82;99838.00;4909464;29;20047;-75
2023/06/18 02:23:46;;;;;;;0.20;0.20;;;;;;;17.15;45.31;99836.50;4908606;29;20047;-74
2023/06/18 02:26:13;;;;;;;0.10;0.10;;;;;;;17.21;45.13;99839.94;4907479;29;20051;-74
2023/06/18 02:28:39;;;;;;;0.10;0.10;;;;;;;17.15;44.94;99844.78;4892550;29;20496;-74
2023/06/18 02:31:06;;;;;;;0.10;0.10;;;;;;;17.09;45.08;99853.53;4910969;29;20079;-75
2023/06/18 02:33:33;;;;;;;0.10;0.10;;;;;;;17.07;45.22;99855.78;4907663;29;20481;-75
2023/06/18 02:35:59;;;;;;;0.10;0.10;;;;;;;17.05;45.37;99855.31;4893002;29;20104;-76
2023/06/18 02:38:27;;;;;;;0.10;0.10;;;;;;;17.08;46.02;99854.66;4908651;29;20052;-75
2023/06/18 02:40:55;;;;;;;0.20;0.20;;;;;;;17.13;45.80;99857.31;4906605;29;20304;-75
2023/06/18 02:43:22;;;;;;;0.10;0.10;;;;;;;17.17;45.56;99855.53;4910077;29;20142;-74
2023/06/18 02:45:50;;;;;;;0.20;0.20;;;;;;;17.24;45.35;99863.38;4907943;29;20060;-77
2023/06/18 02:48:16;;;;;;;0.10;0.10;;;;;;;17.24;44.92;99857.84;4910594;29;20135;-76
2023/06/18 02:50:42;;;;;;;0.10;0.10;;;;;;;17.21;45.31;99842.69;4891888;29;20071;-75
2023/06/18 02:53:08;;;;;;;0.10;0.10;;;;;;;17.20;45.97;99846.59;4906768;29;20059;-75
2023/06/18 02:55:37;;;;;;;0.10;0.10;;;;;;;17.21;45.82;99850.19;4907340;29;20052;-75
2023/06/18 02:58:03;;;;;;;0.10;0.10;;;;;;;17.17;46.28;99854.69;4908931;29;20259;-74
2023/06/18 03:00:30;;;;;;;0.10;0.10;;;;;;;17.17;46.10;99858.28;4892242;29;20048;-75
2023/06/18 03:02:56;;;;;;;0.20;0.20;;;;;;;17.13;46.12;99866.41;4906817;29;20583;-76
2023/06/18 03:05:27;;;;;;;0.10;0.10;;;;;;;17.13;45.35;99862.84;4922078;29;20044;-75
2023/06/18 03:07:53;;;;;;;0.10;0.10;;;;;;;17.12;45.62;99870.28;4909013;29;20036;-75
2023/06/18 03:10:20;;;;;;;0.10;0.10;;;;;;;17.15;45.93;99866.09;4906788;29;20059;-76
2023/06/18 03:12:51;;;;;;;0.10;0.10;;;;;;;17.15;45.33;99864.13;4890416;29;20048;-75
2023/06/18 03:15:30;;;;;;;0.20;0.20;;;;;;;17.21;45.45;99864.00;4906295;29;20075;-76
2023/06/18 03:17:56;;;;;;;0.20;0.20;;;;;;;17.34;45.47;99856.75;4907845;29;20131;-75
2023/06/18 03:20:23;;;;;;;0.20;0.20;;;;;;;17.43;45.19;99854.84;4907525;29;20111;-75
2023/06/18 03:22:54;;;;;;;0.20;0.20;;;;;;;17.58;44.97;99856.31;4905717;29;20040;-74
2023/06/18 03:25:21;;;;;;;0.20;0.20;;;;;;;17.60;45.16;99858.78;4922049;29;20059;-75
2023/06/18 03:27:47;;;;;;;0.20;0.20;;;;;;;17.63;44.84;99855.38;4914498;29;20587;-74
2023/06/18 03:30:15;;;;;;;0.20;0.20;;;;;;;17.72;44.92;99862.53;4905401;29;20151;-77
2023/06/18 03:32:41;;;;;;;0.20;0.20;;;;;;;17.78;45.37;99865.16;4905070;29;20147;-75
2023/06/18 03:35:08;;;;;;;0.20;0.20;;;;;;;17.82;44.47;99866.97;4889425;29;20527;-74
2023/06/18 03:37:36;;;;;;;0.20;0.20;;;;;;;17.91;44.16;99860.63;4906856;29;20048;-76
2023/06/18 03:40:03;;;;;;;0.20;0.20;;;;;;;18.06;43.96;99862.97;4889194;29;20164;-73
2023/06/18 03:42:30;;;;;;;0.20;0.20;;;;;;;18.25;43.94;99864.59;4904413;29;20055;-75
2023/06/18 03:44:56;;;;;;;0.20;0.20;;;;;;;18.45;43.39;99870.63;4891456;29;20193;-72
2023/06/18 03:47:24;;;;;;;0.20;0.20;;;;;;;18.57;43.13;99870.78;4891734;29;20048;-73
2023/06/18 03:49:50;;;;;;;0.20;0.20;;;;;;;18.57;42.81;99854.16;4891835;29;20142;-74
2023/06/18 03:52:17;;;;;;;0.23;0.23;;;;;;;18.75;41.83;99860.50;4905897;29;20063;-73
2023/06/18 03:54:43;;;;;;;0.20;0.20;;;;;;;18.94;41.28;99875.94;4905181;29;20048;-73
2023/06/18 03:57:09;;;;;;;0.30;0.30;;;;;;;19.09;41.22;99872.66;4904404;29;20063;-73
2023/06/18 03:59:37;;;;;;;0.20;0.20;;;;;;;19.13;41.64;99875.59;4904409;29;20256;-74
2023/06/18 04:02:04;;;;;;;0.20;0.20;;;;;;;19.35;40.53;99873.72;4904474;29;20074;-74
2023/06/18 04:04:31;;;;;;;0.30;0.30;;;;;;;19.53;39.98;99874.44;4905512;29;20135;-74
2023/06/18 04:06:57;;;;;;;0.20;0.20;;;;;;;19.74;39.31;99876.47;4890437;29;20511;-74
2023/06/18 04:09:24;;;;;;;0.20;0.20;;;;;;;19.92;39.44;99877.19;4904336;29;20400;-74
2023/06/18 04:11:50;;;;;;;0.20;0.20;;;;;;;19.95;38.72;99877.31;4907090;29;20138;-73
2023/06/18 04:14:16;;;;;;;0.20;0.20;;;;;;;19.80;38.42;99878.69;4888819;29;20154;-74
2023/06/18 04:16:43;;;;;;;0.20;0.20;;;;;;;19.66;38.90;99875.34;4904153;29;20048;-74
2023/06/18 04:19:10;;;;;;;0.20;0.20;;;;;;;19.50;38.72;99867.59;4908106;29;20131;-75
2023/06/18 04:21:38;;;;;;;0.20;0.20;;;;;;;19.30;38.63;99877.47;4906422;29;20071;-75
2023/06/18 04:24:05;;;;;;;0.20;0.20;;;;;;;19.22;38.30;99867.25;4921460;29;20044;-74
2023/06/18 04:26:31;;;;;;;0.20;0.20;;;;;;;19.19;38.62;99876.19;4905041;29;20167;-75
2023/06/18 04:28:57;;;;;;;0.20;0.20;;;;;;;19.16;38.14;99874.94;4906519;29;20467;-74
2023/06/18 04:31:24;;;;;;;0.20;0.20;;;;;;;19.12;38.60;99879.47;4908182;29;20079;-75
2023/06/18 04:33:50;;;;;;;0.20;0.20;;;;;;;19.10;38.55;99879.84;4889119;29;20091;-76
2023/06/18 04:36:16;;;;;;;0.20;0.20;;;;;;;19.10;38.51;99882.59;4905634;29;20052;-74
2023/06/18 04:38:48;;;;;;;0.20;0.20;;;;;;;19.10;38.44;99882.59;4907219;29;20130;-75
2023/06/18 04:41:14;;;;;;;0.30;0.30;;;;;;;19.13;38.49;99887.47;4904216;29;20158;-74
2023/06/18 04:43:40;;;;;;;0.20;0.20;;;;;;;19.08;37.72;99872.97;4903184;29;20044;-75
2023/06/18 04:46:07;;;;;;;0.20;0.20;;;;;;;19.16;37.61;99886.00;4889817;29;20047;-75
2023/06/18 04:48:34;;;;;;;0.20;0.20;;;;;;;19.17;36.92;99892.34;4888322;29;20452;-73
2023/06/18 04:51:02;;;;;;;0.30;0.30;;;;;;;19.17;36.93;99884.03;4905493;29;20052;-73
2023/06/18 04:53:29;;;;;;;0.20;0.20;;;;;;;19.22;37.37;99892.97;4888641;29;20040;-74
2023/06/18 04:55:57;;;;;;;0.22;0.22;;;;;;;19.31;37.31;99892.16;4905894;29;20063;-74
2023/06/18 04:58:24;;;;;;;0.20;0.20;;;;;;;19.37;37.42;99888.03;4905974;29;20849;-76
2023/06/18 05:00:53;;;;;;;0.20;0.20;;;;;;;19.40;36.79;99893.75;4902298;29;20529;-75
2023/06/18 05:03:19;;;;;;;0.20;0.20;;;;;;;19.45;37.28;99894.69;4885864;29;20143;-76
2023/06/18 05:05:45;;;;;;;0.20;0.20;;;;;;;19.48;37.06;99894.84;4892261;29;20064;-75
2023/06/18 05:08:12;;;;;;;0.20;0.20;;;;;;;19.51;36.68;99891.41;4904922;29;20048;-74
2023/06/18 05:10:38;;;;;;;0.20;0.20;;;;;;;19.45;35.24;99884.44;4902944;29;20054;-75
2023/06/18 05:13:06;;;;;;;0.20;0.20;;;;;;;19.41;36.11;99894.53;4906415;29;20071;-76
2023/06/18 05:15:33;;;;;;;0.20;0.20;;;;;;;19.47;36.61;99897.94;4903652;29;20074;-75
2023/06/18 05:18:00;;;;;;;0.30;0.30;;;;;;;19.51;35.22;99887.81;4905909;29;20282;-75
2023/06/18 05:20:27;;;;;;;0.30;0.30;;;;;;;19.53;35.02;99896.63;4887794;29;20511;-73
2023/06/18 05:22:55;;;;;;;0.20;0.20;;;;;;;19.52;34.96;99889.47;4900253;29;20084;-75
2023/06/18 05:25:24;;;;;;;0.30;0.30;;;;;;;19.54;35.16;99882.41;4902273;29;20083;-75
2023/06/18 05:27:50;;;;;;;0.20;0.20;;;;;;;19.56;35.03;99876.56;4920280;29;20051;-76
2023/06/18 05:30:20;;;;;;;0.28;0.28;;;;;;;19.65;35.27;99882.06;4877981;29;20136;-75
2023/06/18 05:32:46;;;;;;;0.55;0.30;;;;;;;19.72;34.80;99887.88;4903162;29;20661;-75
2023/06/18 05:35:16;;;;;;;0.57;0.30;;;;;;;19.69;34.85;99886.59;4881693;29;20047;-75
2023/06/18 05:37:50;;;;;;;0.30;0.30;;;;;;;19.68;34.90;99884.97;4897873;29;20053;-74
2023/06/18 05:40:17;;;;;;;0.20;0.20;;;;;;;19.71;34.61;99897.34;4894553;29;20111;-73
2023/06/18 05:42:43;;;;;;;0.20;0.20;;;;;;;19.75;34.92;99894.72;4905341;29;20056;-73
2023/06/18 05:45:11;;;;;;;0.25;0.25;;;;;;;19.81;34.88;99894.19;4902753;29;20520;-74
2023/06/18 05:47:39;;;;;;;0.20;0.20;;;;;;;19.86;34.84;99897.91;4904247;29;20523;-73
2023/06/18 05:50:09;;;;;;;0.20;0.20;;;;;;;19.88;34.58;99893.66;4888701;29;20067;-74
2023/06/18 05:52:36;;;;;;;;;;;;;;;19.96;34.46;99900.34;4902729;29;20054;-74
2023/06/18 05:55:06;;;;;;;0.20;0.20;;;;;;;20.01;34.00;99894.59;4904906;29;19927;-76
2023/06/18 05:57:32;;;;;;;0.20;0.20;;;;;;;20.04;34.40;99895.88;4896526;29;20428;-76
2023/06/18 05:59:59;;;;;;;0.20;0.20;;;;;;;20.04;34.27;99890.34;4903024;29;20052;-76
2023/06/18 06:02:25;;;;;;;0.20;0.20;;;;;;;20.05;34.29;99889.97;4902311;29;20048;-76
2023/06/18 06:04:53;;;;;;;0.20;0.20;;;;;;;20.07;34.20;99887.72;4887624;29;20056;-75
2023/06/18 06:07:20;;;;;;;0.30;0.30;;;;;;;20.12;34.06;99890.28;4887810;29;20119;-76
2023/06/18 06:09:47;;;;;;;0.20;0.20;;;;;;;20.20;34.06;99885.00;4872966;29;20587;-75
2023/06/18 06:12:13;;;;;;;0.20;0.20;;;;;;;20.26;33.98;99878.09;4902162;29;20431;-75
2023/06/18 06:14:40;;;;;;;0.20;0.20;;;;;;;20.33;33.67;99883.13;4905148;29;20946;-76
2023/06/18 06:17:06;;;;;;;0.30;0.30;;;;;;;20.41;33.60;99876.66;4905094;29;20147;-75
2023/06/18 06:19:32;;;;;;;0.20;0.20;;;;;;;20.45;32.90;99885.13;4909044;29;20071;-75
2023/06/18 06:22:00;;;;;;;0.20;0.20;;;;;;;20.42;32.11;99880.25;4911006;29;20407;-76
2023/06/18 06:24:26;;;;;;;0.20;0.20;;;;;;;20.45;32.10;99885.94;4907532;29;20227;-75
2023/06/18 06:26:53;;;;;;;0.20;0.20;;;;;;;20.61;31.82;99883.34;4908433;29;20351;-75
2023/06/18 06:29:19;;;;;;;0.20;0.20;;;;;;;20.79;32.21;99886.78;4908130;29;20044;-75
2023/06/18 06:31:46;;;;;;;0.30;0.30;;;;;;;20.95;32.11;99888.94;4907937;29;20052;-75
2023/06/18 06:34:12;;;;;;;0.30;0.30;;;;;;;21.14;32.10;99884.81;4892124;29;20388;-76
2023/06/18 06:36:39;;;;;;;0.30;0.30;;;;;;;21.29;31.54;99881.34;4907203;29;20044;-75
2023/06/18 06:39:07;;;;;;;0.30;0.30;;;;;;;21.41;31.26;99880.56;4885005;29;20051;-76
2023/06/18 06:41:34;;;;;;;0.30;0.30;;;;;;;21.43;31.49;99880.22;4906250;29;20052;-76
2023/06/18 06:44:03;;;;;;;0.30;0.30;;;;;;;21.57;31.47;99886.25;4902244;29;20052;-75
2023/06/18 06:46:35;;;;;;;0.30;0.30;;;;;;;21.72;31.14;99884.75;4908624;29;20051;-75
2023/06/18 06:49:30;;;;;;;0.30;0.30;;;;;;;21.83;31.09;99887.88;4852730;29;20153;-75
2023/06/18 06:52:19;;;;;;;0.30;0.30;;;;;;;22.01;30.61;99876.47;4883691;29;20052;-75
2023/06/18 06:54:49;;;;;;;0.30;0.30;;;;;;;22.18;30.80;99878.19;4908276;29;20055;-74
2023/06/18 06:57:15;;;;;;;0.30;0.30;;;;;;;22.33;30.79;99877.47;4892763;29;20084;-74
2023/06/18 06:59:42;;;;;;;0.30;0.30;;;;;;;22.28;30.09;99879.66;4908084;29;20480;-74
2023/06/18 07:02:09;;;;;;;0.30;0.30;;;;;;;22.29;30.56;99872.94;4895453;29;20076;-75
2023/06/18 07:04:36;;;;;;;0.30;0.30;;;;;;;22.35;30.28;99877.13;4909116;29;20539;-76
2023/06/18 07:07:03;;;;;;;0.30;0.30;;;;;;;22.37;29.86;99875.56;4892295;29;20051;-76
2023/06/18 07:09:29;;;;;;;0.30;0.30;;;;;;;22.44;29.73;99879.75;4909637;29;20075;-75
2023/06/18 07:11:59;;;;;;;0.30;0.30;;;;;;;22.53;29.54;99880.44;4906548;29;20510;-75
2023/06/18 07:14:26;;;;;;;0.30;0.30;;;;;;;22.73;29.45;99878.59;4907993;29;20064;-73
2023/06/18 07:16:53;;;;;;;0.30;0.30;;;;;;;22.75;29.16;99876.28;4907730;29;20052;-74
2023/06/18 07:19:19;;;;;;;0.30;0.30;;;;;;;22.78;28.94;99881.13;4925503;29;20062;-74
2023/06/18 07:21:45;;;;;;;0.30;0.30;;;;;;;22.91;29.05;99875.50;4907430;29;20052;-74
2023/06/18 07:24:12;;;;;;;0.30;0.30;;;;;;;23.11;29.05;99878.41;4909410;29;20587;-75
2023/06/18 07:26:38;;;;;;;0.30;0.30;;;;;;;23.25;28.54;99875.19;4909964;29;20044;-73
2023/06/18 07:29:06;;;;;;;0.40;0.40;;;;;;;23.39;27.48;99874.75;4907211;29;20585;-75
2023/06/18 07:31:32;;;;;;;0.40;0.40;;;;;;;23.45;27.46;99864.94;4896138;29;20363;-74
2023/06/18 07:33:58;;;;;;;0.30;0.30;;;;;;;23.57;27.41;99870.44;4921313;29;20048;-73
2023/06/18 07:36:25;;;;;;;0.35;0.35;;;;;;;23.64;27.57;99873.38;4889538;29;20044;-74
2023/06/18 07:38:51;;;;;;;0.30;0.30;;;;;;;23.66;26.68;99867.44;4890051;29;20108;-76
2023/06/18 07:41:17;;;;;;;0.30;0.30;;;;;;;23.67;26.71;99879.41;4906386;29;20531;-75
2023/06/18 07:43:44;;;;;;;0.30;0.30;;;;;;;23.65;27.12;99871.41;4905438;29;20468;-76
2023/06/18 07:46:12;;;;;;;0.30;0.30;;;;;;;23.78;26.77;99863.72;4906942;29;20063;-75
2023/06/18 07:48:39;;;;;;;0.30;0.30;;;;;;;24.09;26.53;99867.63;4910380;29;20048;-75
2023/06/18 07:51:05;;;;;;;0.50;0.40;;;;;;;24.30;25.82;99867.28;4908655;29;20048;-75
2023/06/18 07:53:32;;;;;;;0.30;0.30;;;;;;;24.42;26.28;99868.31;4909204;29;20143;-75
2023/06/18 07:55:58;;;;;;;0.32;0.32;;;;;;;24.59;25.97;99873.47;4903506;29;20049;-75
2023/06/18 07:58:25;;;;;;;0.38;0.38;;;;;;;24.60;25.72;99860.28;4902665;29;20052;-76
2023/06/18 08:00:51;;;;;;;0.30;0.30;;;;;;;24.61;25.70;99864.69;4909854;29;20225;-76
2023/06/18 08:03:19;;;;;;;0.40;0.40;;;;;;;24.61;25.49;99864.69;4907618;29;20054;-75
2023/06/18 08:05:45;;;;;;;0.40;0.40;;;;;;;24.75;25.62;99869.78;4899070;29;20067;-75
2023/06/18 08:08:11;;;;;;;0.30;0.30;;;;;;;24.83;25.28;99867.97;4906100;29;20092;-75
2023/06/18 08:10:37;;;;;;;0.30;0.30;;;;;;;24.95;25.46;99870.56;4889946;29;20052;-75
2023/06/18 08:13:05;;;;;;;0.40;0.40;;;;;;;25.03;25.19;99861.13;4908231;29;20048;-76
2023/06/18 08:15:31;;;;;;;0.40;0.40;;;;;;;25.13;24.92;99876.47;4889178;29;20072;-74
2023/06/18 08:17:57;;;;;;;0.40;0.40;;;;;;;25.30;24.78;99868.78;4891662;29;20593;-74
2023/06/18 08:20:25;;;;;;;0.30;0.30;;;;;;;25.57;24.26;99866.03;4905810;29;20059;-74
2023/06/18 08:22:51;;;;;;;0.40;0.40;;;;;;;25.98;23.87;99857.81;4906252;29;20306;-74
2023/06/18 08:25:17;;;;;;;0.40;0.40;;;;;;;26.27;22.93;99852.63;4922302;29;20055;-75
2023/06/18 08:27:43;;;;;;;0.30;0.30;;;;;;;26.27;22.97;99852.63;4907756;29;20044;-74
2023/06/18 08:30:10;;;;;;;0.37;0.37;;;;;;;26.26;23.26;99851.03;4906445;29;20067;-74
2023/06/18 08:32:38;;;;;;;0.40;0.40;;;;;;;26.71;23.00;99851.16;4905258;29;20486;-74
2023/06/18 08:35:05;;;;;;;0.40;0.40;;;;;;;27.29;22.13;99843.28;4906742;29;20083;-74
2023/06/18 08:37:32;;;;;;;;;;;;;;;27.51;22.18;99837.03;4908279;29;20494;-74
2023/06/18 08:39:59;;;;;;;0.40;0.40;;;;;;;27.43;22.16;99831.38;4904542;29;19930;-74
2023/06/18 08:42:25;;;;;;;0.40;0.40;;;;;;;27.49;22.60;99842.25;4905453;29;20138;-74
2023/06/18 08:44:53;;;;;;;0.50;0.50;;;;;;;27.91;22.13;99851.34;4904230;29;20759;-73
2023/06/18 08:47:21;;;;;;;0.40;0.40;;;;;;;28.25;21.66;99843.53;4905444;29;20058;-73
2023/06/18 08:49:50;;;;;;;0.50;0.50;;;;;;;28.44;21.36;99850.03;4906895;29;20059;-75
2023/06/18 08:52:18;;;;;;;0.50;0.50;;;;;;;28.79;20.67;99840.06;4904487;29;20052;-75
2023/06/18 08:54:51;;;;;;;0.50;0.50;;;;;;;28.71;20.85;99835.66;4889895;29;20360;-74
2023/06/18 08:57:26;;;;;;;0.50;0.50;;;;;;;28.97;20.55;99842.94;4906491;29;20072;-73
2023/06/18 08:59:54;;;;;;;0.60;0.60;;;;;;;29.49;20.59;99844.56;4906758;29;20184;-74
2023/06/18 09:02:22;;;;;;;0.50;0.50;;;;;;;30.12;19.88;99843.25;4908282;29;20044;-74
2023/06/18 09:04:48;;;;;;;0.60;0.60;;;;;;;30.58;19.26;99844.25;4905327;29;20051;-73
2023/06/18 09:07:14;;;;;;;;;;;;;;;30.88;18.84;99839.28;4906036;29;20052;-74
2023/06/18 09:09:40;;;;;;;0.60;0.60;;;;;;;30.93;18.52;99836.81;4915638;29;20287;-74
2023/06/18 09:12:10;;;;;;;0.50;0.50;;;;;;;30.69;18.79;99830.13;4906406;29;20869;-74
2023/06/18 09:14:36;;;;;;;0.60;0.60;;;;;;;30.66;18.99;99826.09;4920236;29;20358;-73
2023/06/18 09:17:02;;;;;;;0.60;0.60;;;;;;;30.43;19.10;99824.56;4905965;29;20064;-75
2023/06/18 09:19:29;;;;;;;0.60;0.60;;;;;;;30.54;18.90;99830.19;4906669;29;20063;-74
2023/06/18 09:21:55;;;;;;;;;;;;;;;30.96;18.14;99832.34;4905132;29;20131;-74
2023/06/18 09:24:22;;;;;;;0.60;0.60;;;;;;;31.33;18.17;99819.59;4906139;29;19958;-73
2023/06/18 09:27:00;;;;;;;0.70;0.70;;;;;;;31.71;17.31;99810.34;4920132;29;20128;-74
2023/06/18 09:29:30;;;;;;;0.65;0.65;;;;;;;31.89;17.56;99810.13;4905801;29;20063;-74
2023/06/18 09:31:56;;;;;;;0.70;0.70;;;;;;;32.04;17.29;99807.97;4903976;29;20131;-73
2023/06/18 09:34:22;;;;;;;0.88;0.88;;;;;;;32.24;17.55;99813.75;4905296;29;19934;-74
2023/06/18 09:36:50;;;;;;;0.70;0.70;;;;;;;32.64;16.89;99812.41;4905863;29;20373;-74
2023/06/18 09:39:18;;;;;;;0.80;0.80;;;;;;;33.10;16.18;99807.31;4905029;29;20072;-75
2023/06/18 09:41:46;;;;;;;0.80;0.80;;;;;;;33.19;16.32;99813.19;4906591;29;20085;-74
2023/06/18 09:44:14;;;;;;;0.80;0.80;;;;;;;33.26;15.95;99808.66;4921686;29;20583;-75
2023/06/18 09:46:46;;;;;;;0.80;0.80;;;;;;;32.96;16.53;99805.50;4905936;29;20052;-74
2023/06/18 09:49:13;;;;;;;0.85;0.85;;;;;;;32.77;16.68;99810.59;4889555;29;20138;-73
2023/06/18 09:51:43;;;;;;;0.80;0.80;;;;;;;33.22;16.56;99800.22;4917569;29;20041;-74
2023/06/18 09:54:11;;;;;;;0.90;0.90;;;;;;;33.56;16.22;99806.91;4888852;29;20165;-75
2023/06/18 09:56:38;;;;;;;0.90;0.90;;;;;;;33.87;15.54;99801.03;4907171;29;20074;-74
2023/06/18 09:59:05;;;;;;;1.85;1.67;;;;;;;34.25;15.65;99794.19;4909834;29;20083;-74
2023/06/18 10:01:47;;;;;;;0.90;0.90;;;;;;;34.14;15.26;99792.41;4927252;29;20051;-76
2023/06/18 10:04:13;;;;;;;0.90;0.90;;;;;;;34.41;14.79;99790.63;4888223;29;20040;-75
2023/06/18 10:06:42;;;;;;;1.00;1.00;;;;;;;34.90;14.98;99799.22;4907616;29;20053;-74
2023/06/18 10:09:10;;;;;;;1.00;1.00;;;;;;;34.92;14.61;99788.19;4907821;29;20052;-74
2023/06/18 10:11:36;;;;;;;1.05;1.05;;;;;;;34.31;15.50;99790.41;4904945;29;20119;-75
2023/06/18 10:14:07;;;;;;;0.40;0.40;;;;;;;33.36;16.24;99791.47;4904744;29;20064;-73
2023/06/18 10:16:35;;;;;;;0.90;0.90;;;;;;;31.45;17.82;99797.66;4905692;29;20528;-74
2023/06/18 10:19:09;;;;;;;0.90;0.90;;;;;;;32.22;16.74;99790.75;4908192;29;20060;-74
2023/06/18 10:21:38;;;;;;;0.88;0.88;;;;;;;33.45;16.38;99788.09;4908001;29;20087;-74
2023/06/18 10:24:11;;;;;;;1.00;1.00;;;;;;;32.65;16.75;99795.03;4905414;29;20044;-74
2023/06/18 10:26:39;;;;;;;0.40;0.40;;;;;;;31.30;17.44;99794.19;4566365;29;9999768;-74
2023/06/18 10:29:06;;;;;;;0.70;0.70;;;;;;;30.99;18.48;99792.81;4903951;29;20055;-73
2023/06/18 10:31:33;;;;;;;1.00;1.00;;;;;;;32.43;16.58;99783.22;4903285;29;20036;-74
2023/06/18 10:33:59;;;;;;;0.40;0.40;;;;;;;32.78;16.45;99783.09;4902120;29;20056;-74
2023/06/18 10:36:28;;;;;;;0.60;0.60;;;;;;;31.36;17.68;99778.41;4903495;29;20048;-73
2023/06/18 10:38:55;;;;;;;0.88;0.88;;;;;;;31.91;17.74;99775.81;4903747;29;20822;-74
2023/06/18 10:41:22;;;;;;;1.02;1.02;;;;;;;32.57;16.93;99767.28;4903129;29;20143;-73
2023/06/18 10:43:50;;;;;;;1.10;1.10;;;;;;;33.49;15.93;99773.88;4905081;29;20051;-74
2023/06/18 10:46:16;;;;;;;0.80;0.80;;;;;;;33.99;15.63;99772.06;4889852;29;20054;-75
2023/06/18 10:49:05;;;;;;;;;;;;;;;33.97;15.26;99783.03;4918118;29;20361;-74
2023/06/18 10:51:33;;;;;;;1.10;1.10;;;;;;;34.67;14.94;99777.47;4908993;29;19938;-75
2023/06/18 10:54:21;;;;;;;1.10;1.10;;;;;;;35.63;14.24;99768.97;4890306;29;20129;-75
2023/06/18 10:56:53;;;;;;;1.30;1.20;;;;;;;36.37;13.83;99766.41;4919719;29;20579;-75
2023/06/18 10:59:36;;;;;;;1.15;1.15;;;;;;;36.74;13.37;99763.22;4905423;29;20048;-74
2023/06/18 11:02:03;;;;;;;1.20;1.20;;;;;;;36.74;13.04;99754.69;4902353;29;20048;-74
2023/06/18 11:04:31;;;;;;;1.30;1.20;;;;;;;36.76;13.25;99757.88;4908105;29;20052;-75
2023/06/18 11:07:23;;;;;;;1.25;1.20;;;;;;;36.59;13.54;99760.03;4906615;29;20059;-74
2023/06/18 11:09:52;;;;;;;1.25;1.20;;;;;;;36.64;13.46;99753.78;4905018;29;20579;-72
2023/06/18 11:12:20;;;;;;;1.30;1.20;;;;;;;37.08;13.13;99764.53;4906791;29;20084;-73
2023/06/18 11:15:15;;;;;;;1.30;1.20;;;;;;;37.34;13.12;99755.94;4904809;29;20066;-76
2023/06/18 11:17:42;;;;;;;1.30;1.20;;;;;;;36.53;13.42;99759.84;4909230;29;20537;-74
2023/06/18 11:20:11;;;;;;;1.38;1.27;;;;;;;35.92;13.68;99753.94;4907638;29;20052;-73
2023/06/18 11:22:40;;;;;;;1.40;1.30;;;;;;;35.49;14.05;99755.91;4892651;29;20076;-73
2023/06/18 11:25:08;;;;;;;1.40;1.30;;;;;;;35.77;13.94;99762.06;4906926;29;20079;-72
2023/06/18 11:27:35;;;;;;;1.40;1.30;;;;;;;36.18;13.55;99751.13;4920542;29;20048;-74
2023/06/18 11:30:01;;;;;;;1.50;1.40;;;;;;;36.51;13.76;99747.28;4888478;29;20539;-73
2023/06/18 11:32:30;;;;;;;0.75;0.75;;;;;;;35.46;14.52;99745.44;4905872;29;20055;-73
2023/06/18 11:34:56;;;;;;;0.55;0.55;;;;;;;33.77;15.94;99749.00;4903709;29;20048;-73
2023/06/18 11:37:25;;;;;;;0.60;0.60;;;;;;;32.29;17.26;99763.59;4904022;29;20048;-74